sensor_id;sensor_type;location;lat;lon;timestamp;P1;durP1;ratioP1;P2;durP2;ratioP2
76409;SDS011;65238;42.662;23.280;2023-02-19T00:01:05;31.80;;;12.30;;
76409;SDS011;65238;42.662;23.280;2023-02-19T00:03:32;26.47;;;12.90;;
76409;SDS011;65238;42.662;23.280;2023-02-19T00:06:00;26.20;;;12.35;;
76409;SDS011;65238;42.662;23.280;2023-02-19T00:08:28;25.55;;;11.55;;
76409;SDS011;65238;42.662;23.280;2023-02-19T00:11:00;22.20;;;11.80;;
76409;SDS011;65238;42.662;23.280;2023-02-19T00:13:30;29.67;;;11.57;;
76409;SDS011;65238;42.662;23.280;2023-02-19T00:15:59;26.50;;;12.05;;
76409;SDS011;65238;42.662;23.280;2023-02-19T00:18:39;27.38;;;12.45;;
76409;SDS011;65238;42.662;23.280;2023-02-19T00:21:04;26.35;;;11.90;;
76409;SDS011;65238;42.662;23.280;2023-02-19T00:23:30;28.35;;;12.32;;
76409;SDS011;65238;42.662;23.280;2023-02-19T00:25:55;24.23;;;12.45;;
76409;SDS011;65238;42.662;23.280;2023-02-19T00:28:21;29.45;;;13.73;;
76409;SDS011;65238;42.662;23.280;2023-02-19T00:30:47;29.05;;;12.77;;
76409;SDS011;65238;42.662;23.280;2023-02-19T00:33:12;29.27;;;12.85;;
76409;SDS011;65238;42.662;23.280;2023-02-19T00:35:38;28.10;;;12.82;;
76409;SDS011;65238;42.662;23.280;2023-02-19T00:38:03;26.02;;;12.55;;
76409;SDS011;65238;42.662;23.280;2023-02-19T00:40:29;27.25;;;12.30;;
76409;SDS011;65238;42.662;23.280;2023-02-19T00:42:54;26.45;;;12.43;;
76409;SDS011;65238;42.662;23.280;2023-02-19T00:45:20;31.63;;;14.05;;
76409;SDS011;65238;42.662;23.280;2023-02-19T00:47:46;26.40;;;13.07;;
76409;SDS011;65238;42.662;23.280;2023-02-19T00:50:11;27.40;;;13.25;;
76409;SDS011;65238;42.662;23.280;2023-02-19T00:52:37;23.27;;;12.60;;
76409;SDS011;65238;42.662;23.280;2023-02-19T00:55:02;27.10;;;12.95;;
76409;SDS011;65238;42.662;23.280;2023-02-19T00:57:28;27.33;;;11.80;;
76409;SDS011;65238;42.662;23.280;2023-02-19T00:59:53;28.73;;;11.90;;
76409;SDS011;65238;42.662;23.280;2023-02-19T01:02:19;28.45;;;11.98;;
76409;SDS011;65238;42.662;23.280;2023-02-19T01:04:44;25.13;;;12.18;;
76409;SDS011;65238;42.662;23.280;2023-02-19T01:07:10;23.55;;;10.60;;
76409;SDS011;65238;42.662;23.280;2023-02-19T01:09:35;22.33;;;10.32;;
76409;SDS011;65238;42.662;23.280;2023-02-19T01:12:02;24.48;;;11.00;;
76409;SDS011;65238;42.662;23.280;2023-02-19T01:14:28;19.80;;;10.07;;
76409;SDS011;65238;42.662;23.280;2023-02-19T01:16:53;19.52;;;9.90;;
76409;SDS011;65238;42.662;23.280;2023-02-19T01:19:19;20.58;;;9.38;;
76409;SDS011;65238;42.662;23.280;2023-02-19T01:21:44;20.42;;;9.35;;
76409;SDS011;65238;42.662;23.280;2023-02-19T01:24:10;20.67;;;8.80;;
76409;SDS011;65238;42.662;23.280;2023-02-19T01:26:35;19.15;;;9.60;;
76409;SDS011;65238;42.662;23.280;2023-02-19T01:29:01;23.88;;;10.10;;
76409;SDS011;65238;42.662;23.280;2023-02-19T01:31:26;24.30;;;10.50;;
76409;SDS011;65238;42.662;23.280;2023-02-19T01:33:53;20.30;;;10.50;;
76409;SDS011;65238;42.662;23.280;2023-02-19T01:36:20;21.42;;;11.30;;
76409;SDS011;65238;42.662;23.280;2023-02-19T01:38:46;30.23;;;11.73;;
76409;SDS011;65238;42.662;23.280;2023-02-19T01:41:13;25.38;;;12.23;;
76409;SDS011;65238;42.662;23.280;2023-02-19T01:46:42;21.00;;;10.48;;
76409;SDS011;65238;42.662;23.280;2023-02-19T01:49:11;21.48;;;10.25;;
76409;SDS011;65238;42.662;23.280;2023-02-19T01:51:40;29.48;;;10.75;;
76409;SDS011;65238;42.662;23.280;2023-02-19T01:54:12;19.52;;;10.40;;
76409;SDS011;65238;42.662;23.280;2023-02-19T01:56:40;23.27;;;10.95;;
76409;SDS011;65238;42.662;23.280;2023-02-19T01:59:06;20.50;;;10.32;;
76409;SDS011;65238;42.662;23.280;2023-02-19T02:01:32;21.88;;;10.20;;
76409;SDS011;65238;42.662;23.280;2023-02-19T02:03:58;26.25;;;9.93;;
76409;SDS011;65238;42.662;23.280;2023-02-19T02:06:28;23.08;;;10.13;;
76409;SDS011;65238;42.662;23.280;2023-02-19T02:08:56;27.38;;;12.30;;
76409;SDS011;65238;42.662;23.280;2023-02-19T02:11:47;23.77;;;11.48;;
76409;SDS011;65238;42.662;23.280;2023-02-19T02:14:14;25.35;;;10.95;;
76409;SDS011;65238;42.662;23.280;2023-02-19T02:16:44;22.38;;;10.55;;
76409;SDS011;65238;42.662;23.280;2023-02-19T02:19:29;22.63;;;11.00;;
76409;SDS011;65238;42.662;23.280;2023-02-19T02:25:01;20.35;;;11.07;;
76409;SDS011;65238;42.662;23.280;2023-02-19T02:30:47;25.70;;;10.90;;
76409;SDS011;65238;42.662;23.280;2023-02-19T02:35:46;23.92;;;10.80;;
76409;SDS011;65238;42.662;23.280;2023-02-19T02:38:14;22.37;;;10.47;;
76409;SDS011;65238;42.662;23.280;2023-02-19T02:40:41;21.38;;;11.13;;
76409;SDS011;65238;42.662;23.280;2023-02-19T02:43:07;21.40;;;10.23;;
76409;SDS011;65238;42.662;23.280;2023-02-19T02:45:33;25.95;;;10.35;;
76409;SDS011;65238;42.662;23.280;2023-02-19T02:47:59;23.05;;;10.68;;
76409;SDS011;65238;42.662;23.280;2023-02-19T02:53:05;23.40;;;11.60;;
76409;SDS011;65238;42.662;23.280;2023-02-19T02:55:54;22.70;;;10.23;;
76409;SDS011;65238;42.662;23.280;2023-02-19T02:58:21;21.33;;;10.10;;
76409;SDS011;65238;42.662;23.280;2023-02-19T03:00:48;21.45;;;10.25;;
76409;SDS011;65238;42.662;23.280;2023-02-19T03:03:36;19.85;;;10.07;;
76409;SDS011;65238;42.662;23.280;2023-02-19T03:06:04;24.77;;;9.95;;
76409;SDS011;65238;42.662;23.280;2023-02-19T03:08:39;20.10;;;10.00;;
76409;SDS011;65238;42.662;23.280;2023-02-19T03:11:09;22.55;;;11.27;;
76409;SDS011;65238;42.662;23.280;2023-02-19T03:14:12;22.13;;;10.38;;
76409;SDS011;65238;42.662;23.280;2023-02-19T03:17:01;20.98;;;10.45;;
76409;SDS011;65238;42.662;23.280;2023-02-19T03:19:49;21.92;;;11.18;;
76409;SDS011;65238;42.662;23.280;2023-02-19T03:22:18;27.35;;;10.88;;
76409;SDS011;65238;42.662;23.280;2023-02-19T03:27:49;21.27;;;10.80;;
76409;SDS011;65238;42.662;23.280;2023-02-19T03:30:19;22.80;;;11.43;;
76409;SDS011;65238;42.662;23.280;2023-02-19T03:33:00;27.33;;;12.25;;
76409;SDS011;65238;42.662;23.280;2023-02-19T03:35:33;27.83;;;12.20;;
76409;SDS011;65238;42.662;23.280;2023-02-19T03:40:39;20.15;;;11.80;;
76409;SDS011;65238;42.662;23.280;2023-02-19T03:43:12;25.73;;;11.30;;
76409;SDS011;65238;42.662;23.280;2023-02-19T03:48:24;27.13;;;12.07;;
76409;SDS011;65238;42.662;23.280;2023-02-19T03:56:09;26.75;;;11.60;;
76409;SDS011;65238;42.662;23.280;2023-02-19T03:58:48;25.13;;;11.20;;
76409;SDS011;65238;42.662;23.280;2023-02-19T04:03:56;25.23;;;11.25;;
76409;SDS011;65238;42.662;23.280;2023-02-19T04:06:36;21.30;;;10.88;;
76409;SDS011;65238;42.662;23.280;2023-02-19T04:09:03;25.65;;;11.75;;
76409;SDS011;65238;42.662;23.280;2023-02-19T04:11:30;22.95;;;12.23;;
76409;SDS011;65238;42.662;23.280;2023-02-19T04:16:28;23.65;;;10.85;;
76409;SDS011;65238;42.662;23.280;2023-02-19T04:19:29;23.88;;;10.85;;
76409;SDS011;65238;42.662;23.280;2023-02-19T04:21:48;24.60;;;11.18;;
76409;SDS011;65238;42.662;23.280;2023-02-19T04:24:25;19.98;;;10.85;;
76409;SDS011;65238;42.662;23.280;2023-02-19T04:26:54;18.50;;;10.30;;
76409;SDS011;65238;42.662;23.280;2023-02-19T04:29:20;20.55;;;10.50;;
76409;SDS011;65238;42.662;23.280;2023-02-19T04:31:45;24.05;;;11.75;;
76409;SDS011;65238;42.662;23.280;2023-02-19T04:34:11;22.08;;;10.18;;
76409;SDS011;65238;42.662;23.280;2023-02-19T04:36:36;21.55;;;10.05;;
76409;SDS011;65238;42.662;23.280;2023-02-19T04:39:01;16.33;;;9.35;;
76409;SDS011;65238;42.662;23.280;2023-02-19T04:41:27;20.05;;;9.45;;
76409;SDS011;65238;42.662;23.280;2023-02-19T04:43:52;19.38;;;10.25;;
76409;SDS011;65238;42.662;23.280;2023-02-19T04:46:18;23.45;;;10.20;;
76409;SDS011;65238;42.662;23.280;2023-02-19T04:48:43;24.77;;;9.95;;
76409;SDS011;65238;42.662;23.280;2023-02-19T04:51:09;21.95;;;10.23;;
76409;SDS011;65238;42.662;23.280;2023-02-19T04:53:35;21.55;;;9.77;;
76409;SDS011;65238;42.662;23.280;2023-02-19T04:56:05;21.27;;;9.60;;
76409;SDS011;65238;42.662;23.280;2023-02-19T04:58:31;16.88;;;9.38;;
76409;SDS011;65238;42.662;23.280;2023-02-19T05:00:56;17.08;;;8.88;;
76409;SDS011;65238;42.662;23.280;2023-02-19T05:03:22;17.02;;;9.00;;
76409;SDS011;65238;42.662;23.280;2023-02-19T05:05:47;17.08;;;8.50;;
76409;SDS011;65238;42.662;23.280;2023-02-19T05:08:13;21.83;;;9.55;;
76409;SDS011;65238;42.662;23.280;2023-02-19T05:10:38;19.13;;;8.60;;
76409;SDS011;65238;42.662;23.280;2023-02-19T05:13:04;21.20;;;7.50;;
76409;SDS011;65238;42.662;23.280;2023-02-19T05:15:29;14.68;;;6.63;;
76409;SDS011;65238;42.662;23.280;2023-02-19T05:17:54;16.52;;;6.30;;
76409;SDS011;65238;42.662;23.280;2023-02-19T05:20:20;12.02;;;5.93;;
76409;SDS011;65238;42.662;23.280;2023-02-19T05:22:46;15.15;;;5.75;;
76409;SDS011;65238;42.662;23.280;2023-02-19T05:25:12;10.93;;;5.47;;
76409;SDS011;65238;42.662;23.280;2023-02-19T05:27:37;12.13;;;6.05;;
76409;SDS011;65238;42.662;23.280;2023-02-19T05:30:03;11.30;;;5.30;;
76409;SDS011;65238;42.662;23.280;2023-02-19T05:32:28;9.52;;;5.22;;
76409;SDS011;65238;42.662;23.280;2023-02-19T05:34:54;11.20;;;5.18;;
76409;SDS011;65238;42.662;23.280;2023-02-19T05:37:19;10.93;;;5.28;;
76409;SDS011;65238;42.662;23.280;2023-02-19T05:39:47;12.57;;;5.60;;
76409;SDS011;65238;42.662;23.280;2023-02-19T05:42:13;11.10;;;5.13;;
76409;SDS011;65238;42.662;23.280;2023-02-19T05:44:40;11.55;;;6.00;;
76409;SDS011;65238;42.662;23.280;2023-02-19T05:47:21;12.07;;;5.20;;
76409;SDS011;65238;42.662;23.280;2023-02-19T05:49:47;12.48;;;6.22;;
76409;SDS011;65238;42.662;23.280;2023-02-19T05:52:12;14.32;;;6.00;;
76409;SDS011;65238;42.662;23.280;2023-02-19T05:54:38;14.13;;;5.85;;
76409;SDS011;65238;42.662;23.280;2023-02-19T05:57:04;10.15;;;5.90;;
76409;SDS011;65238;42.662;23.280;2023-02-19T05:59:29;10.48;;;5.90;;
76409;SDS011;65238;42.662;23.280;2023-02-19T06:01:55;10.90;;;5.45;;
76409;SDS011;65238;42.662;23.280;2023-02-19T06:04:22;9.68;;;5.60;;
76409;SDS011;65238;42.662;23.280;2023-02-19T06:06:47;11.80;;;6.55;;
76409;SDS011;65238;42.662;23.280;2023-02-19T06:09:13;13.23;;;6.18;;
76409;SDS011;65238;42.662;23.280;2023-02-19T06:11:39;10.25;;;5.93;;
76409;SDS011;65238;42.662;23.280;2023-02-19T06:14:04;17.42;;;7.07;;
76409;SDS011;65238;42.662;23.280;2023-02-19T06:16:30;14.90;;;7.15;;
76409;SDS011;65238;42.662;23.280;2023-02-19T06:18:57;15.80;;;8.13;;
76409;SDS011;65238;42.662;23.280;2023-02-19T06:21:23;12.52;;;7.15;;
76409;SDS011;65238;42.662;23.280;2023-02-19T06:23:49;9.93;;;5.78;;
76409;SDS011;65238;42.662;23.280;2023-02-19T06:26:16;14.05;;;7.40;;
76409;SDS011;65238;42.662;23.280;2023-02-19T06:28:42;11.40;;;6.35;;
76409;SDS011;65238;42.662;23.280;2023-02-19T06:31:11;9.95;;;6.05;;
76409;SDS011;65238;42.662;23.280;2023-02-19T06:33:37;9.90;;;5.80;;
76409;SDS011;65238;42.662;23.280;2023-02-19T06:36:06;9.95;;;5.60;;
76409;SDS011;65238;42.662;23.280;2023-02-19T06:38:34;11.82;;;5.22;;
76409;SDS011;65238;42.662;23.280;2023-02-19T06:41:00;9.43;;;5.65;;
76409;SDS011;65238;42.662;23.280;2023-02-19T06:43:27;9.38;;;5.78;;
76409;SDS011;65238;42.662;23.280;2023-02-19T06:45:52;12.32;;;5.97;;
76409;SDS011;65238;42.662;23.280;2023-02-19T06:48:18;10.77;;;5.97;;
76409;SDS011;65238;42.662;23.280;2023-02-19T06:50:44;13.60;;;6.38;;
76409;SDS011;65238;42.662;23.280;2023-02-19T06:53:09;10.85;;;6.45;;
76409;SDS011;65238;42.662;23.280;2023-02-19T06:55:36;10.85;;;6.13;;
76409;SDS011;65238;42.662;23.280;2023-02-19T06:58:03;17.05;;;7.55;;
76409;SDS011;65238;42.662;23.280;2023-02-19T07:00:28;14.65;;;7.10;;
76409;SDS011;65238;42.662;23.280;2023-02-19T07:02:53;10.07;;;5.80;;
76409;SDS011;65238;42.662;23.280;2023-02-19T07:05:21;13.77;;;6.07;;
76409;SDS011;65238;42.662;23.280;2023-02-19T07:07:47;12.18;;;6.80;;
76409;SDS011;65238;42.662;23.280;2023-02-19T07:10:13;14.50;;;6.97;;
76409;SDS011;65238;42.662;23.280;2023-02-19T07:12:39;18.40;;;7.38;;
76409;SDS011;65238;42.662;23.280;2023-02-19T07:15:05;14.75;;;7.25;;
76409;SDS011;65238;42.662;23.280;2023-02-19T07:17:30;12.23;;;5.95;;
76409;SDS011;65238;42.662;23.280;2023-02-19T07:19:56;13.82;;;6.13;;
76409;SDS011;65238;42.662;23.280;2023-02-19T07:22:21;13.00;;;7.28;;
76409;SDS011;65238;42.662;23.280;2023-02-19T07:24:46;18.27;;;9.07;;
76409;SDS011;65238;42.662;23.280;2023-02-19T07:27:12;20.95;;;9.23;;
76409;SDS011;65238;42.662;23.280;2023-02-19T07:29:37;18.88;;;8.82;;
76409;SDS011;65238;42.662;23.280;2023-02-19T07:32:03;22.13;;;9.13;;
76409;SDS011;65238;42.662;23.280;2023-02-19T07:34:28;19.48;;;9.07;;
76409;SDS011;65238;42.662;23.280;2023-02-19T07:36:54;13.40;;;8.55;;
76409;SDS011;65238;42.662;23.280;2023-02-19T07:39:19;20.45;;;9.48;;
76409;SDS011;65238;42.662;23.280;2023-02-19T07:41:45;22.08;;;9.63;;
76409;SDS011;65238;42.662;23.280;2023-02-19T07:44:10;15.07;;;8.35;;
76409;SDS011;65238;42.662;23.280;2023-02-19T07:46:40;14.15;;;7.95;;
76409;SDS011;65238;42.662;23.280;2023-02-19T07:49:05;11.85;;;6.82;;
76409;SDS011;65238;42.662;23.280;2023-02-19T07:51:31;9.93;;;6.20;;
76409;SDS011;65238;42.662;23.280;2023-02-19T07:53:56;12.27;;;7.53;;
76409;SDS011;65238;42.662;23.280;2023-02-19T07:56:22;15.77;;;7.57;;
76409;SDS011;65238;42.662;23.280;2023-02-19T07:58:47;10.25;;;5.07;;
76409;SDS011;65238;42.662;23.280;2023-02-19T08:01:17;9.60;;;5.25;;
76409;SDS011;65238;42.662;23.280;2023-02-19T08:04:04;7.45;;;4.60;;
76409;SDS011;65238;42.662;23.280;2023-02-19T08:06:29;9.27;;;4.60;;
76409;SDS011;65238;42.662;23.280;2023-02-19T08:08:54;7.38;;;4.35;;
76409;SDS011;65238;42.662;23.280;2023-02-19T08:11:21;8.18;;;4.78;;
76409;SDS011;65238;42.662;23.280;2023-02-19T08:14:05;7.32;;;4.75;;
76409;SDS011;65238;42.662;23.280;2023-02-19T08:16:31;8.70;;;5.00;;
76409;SDS011;65238;42.662;23.280;2023-02-19T08:18:56;10.18;;;4.85;;
76409;SDS011;65238;42.662;23.280;2023-02-19T08:21:22;11.13;;;6.18;;
76409;SDS011;65238;42.662;23.280;2023-02-19T08:23:48;12.25;;;5.70;;
76409;SDS011;65238;42.662;23.280;2023-02-19T08:26:14;14.50;;;5.72;;
76409;SDS011;65238;42.662;23.280;2023-02-19T08:28:42;13.15;;;5.10;;
76409;SDS011;65238;42.662;23.280;2023-02-19T08:31:07;9.82;;;4.65;;
76409;SDS011;65238;42.662;23.280;2023-02-19T08:33:34;8.13;;;4.57;;
76409;SDS011;65238;42.662;23.280;2023-02-19T08:36:00;9.48;;;5.20;;
76409;SDS011;65238;42.662;23.280;2023-02-19T08:38:28;8.02;;;4.88;;
76409;SDS011;65238;42.662;23.280;2023-02-19T08:40:54;9.05;;;4.35;;
76409;SDS011;65238;42.662;23.280;2023-02-19T08:43:19;9.73;;;4.72;;
76409;SDS011;65238;42.662;23.280;2023-02-19T08:45:45;7.05;;;4.63;;
76409;SDS011;65238;42.662;23.280;2023-02-19T08:48:11;10.02;;;5.30;;
76409;SDS011;65238;42.662;23.280;2023-02-19T08:50:37;8.20;;;4.80;;
76409;SDS011;65238;42.662;23.280;2023-02-19T08:53:03;10.75;;;4.65;;
76409;SDS011;65238;42.662;23.280;2023-02-19T08:55:30;8.50;;;4.50;;
76409;SDS011;65238;42.662;23.280;2023-02-19T08:57:56;8.60;;;5.10;;
76409;SDS011;65238;42.662;23.280;2023-02-19T09:00:22;7.20;;;4.30;;
76409;SDS011;65238;42.662;23.280;2023-02-19T09:02:47;11.90;;;5.10;;
76409;SDS011;65238;42.662;23.280;2023-02-19T09:05:14;11.20;;;4.43;;
76409;SDS011;65238;42.662;23.280;2023-02-19T09:07:39;6.85;;;4.15;;
76409;SDS011;65238;42.662;23.280;2023-02-19T09:10:09;6.80;;;4.03;;
76409;SDS011;65238;42.662;23.280;2023-02-19T09:12:35;10.18;;;4.57;;
76409;SDS011;65238;42.662;23.280;2023-02-19T09:15:04;9.60;;;4.70;;
76409;SDS011;65238;42.662;23.280;2023-02-19T09:17:30;10.82;;;4.43;;
76409;SDS011;65238;42.662;23.280;2023-02-19T09:19:56;6.60;;;4.50;;
76409;SDS011;65238;42.662;23.280;2023-02-19T09:22:22;8.65;;;5.32;;
76409;SDS011;65238;42.662;23.280;2023-02-19T09:24:47;9.70;;;4.53;;
76409;SDS011;65238;42.662;23.280;2023-02-19T09:27:16;8.13;;;4.72;;
76409;SDS011;65238;42.662;23.280;2023-02-19T09:29:43;8.93;;;4.70;;
76409;SDS011;65238;42.662;23.280;2023-02-19T09:32:09;10.70;;;4.75;;
76409;SDS011;65238;42.662;23.280;2023-02-19T09:34:38;11.15;;;4.85;;
76409;SDS011;65238;42.662;23.280;2023-02-19T09:37:07;11.23;;;4.35;;
76409;SDS011;65238;42.662;23.280;2023-02-19T09:39:33;10.00;;;4.90;;
76409;SDS011;65238;42.662;23.280;2023-02-19T09:42:03;9.18;;;4.90;;
76409;SDS011;65238;42.662;23.280;2023-02-19T09:44:36;7.45;;;3.95;;
76409;SDS011;65238;42.662;23.280;2023-02-19T09:47:05;7.20;;;3.78;;
76409;SDS011;65238;42.662;23.280;2023-02-19T09:49:34;9.45;;;4.40;;
76409;SDS011;65238;42.662;23.280;2023-02-19T09:54:54;10.27;;;4.53;;
76409;SDS011;65238;42.662;23.280;2023-02-19T09:57:23;7.22;;;4.32;;
76409;SDS011;65238;42.662;23.280;2023-02-19T09:59:51;9.77;;;4.60;;
76409;SDS011;65238;42.662;23.280;2023-02-19T10:02:22;6.35;;;4.82;;
76409;SDS011;65238;42.662;23.280;2023-02-19T10:04:48;8.43;;;4.85;;
76409;SDS011;65238;42.662;23.280;2023-02-19T10:07:18;7.30;;;4.72;;
76409;SDS011;65238;42.662;23.280;2023-02-19T10:10:00;12.95;;;5.75;;
76409;SDS011;65238;42.662;23.280;2023-02-19T10:12:34;10.90;;;4.95;;
76409;SDS011;65238;42.662;23.280;2023-02-19T10:17:49;10.32;;;4.72;;
76409;SDS011;65238;42.662;23.280;2023-02-19T10:20:16;9.65;;;4.72;;
76409;SDS011;65238;42.662;23.280;2023-02-19T10:22:46;12.68;;;4.63;;
76409;SDS011;65238;42.662;23.280;2023-02-19T10:25:12;6.90;;;3.97;;
76409;SDS011;65238;42.662;23.280;2023-02-19T10:27:39;6.95;;;4.80;;
76409;SDS011;65238;42.662;23.280;2023-02-19T10:30:05;5.57;;;3.83;;
76409;SDS011;65238;42.662;23.280;2023-02-19T10:32:31;6.43;;;3.90;;
76409;SDS011;65238;42.662;23.280;2023-02-19T10:35:13;10.20;;;4.43;;
76409;SDS011;65238;42.662;23.280;2023-02-19T10:37:46;7.70;;;3.45;;
76409;SDS011;65238;42.662;23.280;2023-02-19T10:40:21;7.13;;;3.70;;
76409;SDS011;65238;42.662;23.280;2023-02-19T10:42:51;4.80;;;3.35;;
76409;SDS011;65238;42.662;23.280;2023-02-19T10:45:20;7.63;;;3.63;;
76409;SDS011;65238;42.662;23.280;2023-02-19T10:47:48;9.10;;;4.00;;
76409;SDS011;65238;42.662;23.280;2023-02-19T10:50:17;6.57;;;3.55;;
76409;SDS011;65238;42.662;23.280;2023-02-19T10:52:51;6.38;;;3.10;;
76409;SDS011;65238;42.662;23.280;2023-02-19T10:57:43;8.77;;;3.47;;
76409;SDS011;65238;42.662;23.280;2023-02-19T11:12:47;10.07;;;3.60;;
76409;SDS011;65238;42.662;23.280;2023-02-19T11:15:30;6.70;;;3.67;;
76409;SDS011;65238;42.662;23.280;2023-02-19T11:23:34;6.10;;;3.05;;
76409;SDS011;65238;42.662;23.280;2023-02-19T11:26:02;4.45;;;2.90;;
76409;SDS011;65238;42.662;23.280;2023-02-19T11:28:39;7.28;;;3.33;;
76409;SDS011;65238;42.662;23.280;2023-02-19T11:33:42;13.30;;;3.72;;
76409;SDS011;65238;42.662;23.280;2023-02-19T11:38:44;7.45;;;3.13;;
76409;SDS011;65238;42.662;23.280;2023-02-19T11:41:12;6.32;;;2.63;;
76409;SDS011;65238;42.662;23.280;2023-02-19T12:02:46;8.82;;;5.35;;
76409;SDS011;65238;42.662;23.280;2023-02-19T12:22:00;5.75;;;3.30;;
76409;SDS011;65238;42.662;23.280;2023-02-19T12:24:34;4.60;;;2.92;;
76409;SDS011;65238;42.662;23.280;2023-02-19T12:32:48;8.00;;;3.53;;
76409;SDS011;65238;42.662;23.280;2023-02-19T12:35:24;6.25;;;3.75;;
76409;SDS011;65238;42.662;23.280;2023-02-19T12:43:51;5.15;;;3.40;;
76409;SDS011;65238;42.662;23.280;2023-02-19T12:46:32;5.28;;;3.60;;
76409;SDS011;65238;42.662;23.280;2023-02-19T12:49:14;7.93;;;4.00;;
76409;SDS011;65238;42.662;23.280;2023-02-19T12:51:48;6.07;;;3.35;;
76409;SDS011;65238;42.662;23.280;2023-02-19T13:02:39;6.38;;;3.22;;
76409;SDS011;65238;42.662;23.280;2023-02-19T13:05:21;6.15;;;3.83;;
76409;SDS011;65238;42.662;23.280;2023-02-19T13:10:38;7.53;;;3.40;;
76409;SDS011;65238;42.662;23.280;2023-02-19T13:16:07;5.22;;;3.25;;
76409;SDS011;65238;42.662;23.280;2023-02-19T13:18:45;9.52;;;3.60;;
76409;SDS011;65238;42.662;23.280;2023-02-19T13:21:12;9.32;;;3.70;;
76409;SDS011;65238;42.662;23.280;2023-02-19T13:24:02;11.10;;;3.47;;
76409;SDS011;65238;42.662;23.280;2023-02-19T13:29:54;7.90;;;3.63;;
76409;SDS011;65238;42.662;23.280;2023-02-19T13:37:05;5.28;;;3.42;;
76409;SDS011;65238;42.662;23.280;2023-02-19T13:39:31;11.10;;;3.90;;
76409;SDS011;65238;42.662;23.280;2023-02-19T13:41:56;9.68;;;3.88;;
76409;SDS011;65238;42.662;23.280;2023-02-19T13:44:29;10.88;;;3.92;;
76409;SDS011;65238;42.662;23.280;2023-02-19T13:46:56;7.53;;;4.10;;
76409;SDS011;65238;42.662;23.280;2023-02-19T13:52:02;5.60;;;3.42;;
76409;SDS011;65238;42.662;23.280;2023-02-19T13:54:52;14.18;;;4.38;;
76409;SDS011;65238;42.662;23.280;2023-02-19T13:58:33;6.85;;;3.67;;
76409;SDS011;65238;42.662;23.280;2023-02-19T14:01:00;8.45;;;4.05;;
76409;SDS011;65238;42.662;23.280;2023-02-19T14:03:28;8.43;;;4.45;;
76409;SDS011;65238;42.662;23.280;2023-02-19T14:06:05;6.28;;;3.88;;
76409;SDS011;65238;42.662;23.280;2023-02-19T14:08:49;6.18;;;3.50;;
76409;SDS011;65238;42.662;23.280;2023-02-19T14:12:00;13.23;;;4.45;;
76409;SDS011;65238;42.662;23.280;2023-02-19T14:14:39;8.52;;;4.07;;
76409;SDS011;65238;42.662;23.280;2023-02-19T14:20:00;8.90;;;4.30;;
76409;SDS011;65238;42.662;23.280;2023-02-19T14:27:50;11.75;;;4.18;;
76409;SDS011;65238;42.662;23.280;2023-02-19T14:30:16;6.75;;;4.65;;
76409;SDS011;65238;42.662;23.280;2023-02-19T14:32:42;6.80;;;3.92;;
76409;SDS011;65238;42.662;23.280;2023-02-19T14:35:29;10.57;;;4.40;;
76409;SDS011;65238;42.662;23.280;2023-02-19T14:37:56;11.98;;;4.20;;
76409;SDS011;65238;42.662;23.280;2023-02-19T14:40:27;6.88;;;3.75;;
76409;SDS011;65238;42.662;23.280;2023-02-19T14:43:05;14.95;;;4.28;;
76409;SDS011;65238;42.662;23.280;2023-02-19T14:45:46;6.30;;;3.72;;
76409;SDS011;65238;42.662;23.280;2023-02-19T14:48:21;9.75;;;4.35;;
76409;SDS011;65238;42.662;23.280;2023-02-19T14:50:53;14.45;;;4.60;;
76409;SDS011;65238;42.662;23.280;2023-02-19T14:53:21;13.13;;;5.20;;
76409;SDS011;65238;42.662;23.280;2023-02-19T14:55:48;10.70;;;5.50;;
76409;SDS011;65238;42.662;23.280;2023-02-19T14:58:23;17.67;;;7.25;;
76409;SDS011;65238;42.662;23.280;2023-02-19T15:01:01;10.82;;;5.00;;
76409;SDS011;65238;42.662;23.280;2023-02-19T15:03:28;8.15;;;4.47;;
76409;SDS011;65238;42.662;23.280;2023-02-19T15:06:00;9.85;;;5.45;;
76409;SDS011;65238;42.662;23.280;2023-02-19T15:08:38;10.68;;;4.47;;
76409;SDS011;65238;42.662;23.280;2023-02-19T15:11:08;10.13;;;4.68;;
76409;SDS011;65238;42.662;23.280;2023-02-19T15:13:35;7.80;;;4.57;;
76409;SDS011;65238;42.662;23.280;2023-02-19T15:16:01;9.07;;;4.88;;
76409;SDS011;65238;42.662;23.280;2023-02-19T15:18:27;12.40;;;5.15;;
76409;SDS011;65238;42.662;23.280;2023-02-19T15:20:58;11.02;;;4.88;;
76409;SDS011;65238;42.662;23.280;2023-02-19T15:23:25;9.80;;;4.95;;
76409;SDS011;65238;42.662;23.280;2023-02-19T15:25:54;11.10;;;5.35;;
76409;SDS011;65238;42.662;23.280;2023-02-19T15:33:22;13.73;;;5.43;;
76409;SDS011;65238;42.662;23.280;2023-02-19T15:35:52;13.60;;;6.30;;
76409;SDS011;65238;42.662;23.280;2023-02-19T15:40:48;10.60;;;5.22;;
76409;SDS011;65238;42.662;23.280;2023-02-19T15:43:27;13.82;;;5.82;;
76409;SDS011;65238;42.662;23.280;2023-02-19T15:45:55;9.27;;;5.55;;
76409;SDS011;65238;42.662;23.280;2023-02-19T15:51:11;13.73;;;6.88;;
76409;SDS011;65238;42.662;23.280;2023-02-19T15:53:45;13.48;;;6.40;;
76409;SDS011;65238;42.662;23.280;2023-02-19T15:56:17;11.93;;;6.63;;
76409;SDS011;65238;42.662;23.280;2023-02-19T15:58:54;15.27;;;5.70;;
76409;SDS011;65238;42.662;23.280;2023-02-19T16:01:26;14.43;;;5.93;;
76409;SDS011;65238;42.662;23.280;2023-02-19T16:03:53;18.92;;;8.27;;
76409;SDS011;65238;42.662;23.280;2023-02-19T16:06:19;15.25;;;8.75;;
76409;SDS011;65238;42.662;23.280;2023-02-19T16:08:59;10.77;;;6.38;;
76409;SDS011;65238;42.662;23.280;2023-02-19T16:11:36;14.98;;;5.43;;
76409;SDS011;65238;42.662;23.280;2023-02-19T16:16:52;15.93;;;6.40;;
76409;SDS011;65238;42.662;23.280;2023-02-19T16:19:29;11.82;;;6.35;;
76409;SDS011;65238;42.662;23.280;2023-02-19T16:21:56;11.20;;;6.50;;
76409;SDS011;65238;42.662;23.280;2023-02-19T16:26:58;22.05;;;7.03;;
76409;SDS011;65238;42.662;23.280;2023-02-19T16:29:30;16.75;;;7.30;;
76409;SDS011;65238;42.662;23.280;2023-02-19T16:31:57;16.70;;;7.32;;
76409;SDS011;65238;42.662;23.280;2023-02-19T16:42:33;12.02;;;7.53;;
76409;SDS011;65238;42.662;23.280;2023-02-19T16:45:14;16.15;;;7.60;;
76409;SDS011;65238;42.662;23.280;2023-02-19T16:47:40;12.38;;;7.57;;
76409;SDS011;65238;42.662;23.280;2023-02-19T16:50:15;13.85;;;7.60;;
76409;SDS011;65238;42.662;23.280;2023-02-19T16:52:52;17.02;;;6.95;;
76409;SDS011;65238;42.662;23.280;2023-02-19T16:55:18;14.38;;;6.85;;
76409;SDS011;65238;42.662;23.280;2023-02-19T16:57:44;16.90;;;7.28;;
76409;SDS011;65238;42.662;23.280;2023-02-19T17:00:19;17.73;;;7.30;;
76409;SDS011;65238;42.662;23.280;2023-02-19T17:02:50;16.23;;;7.18;;
76409;SDS011;65238;42.662;23.280;2023-02-19T17:05:19;14.07;;;7.20;;
76409;SDS011;65238;42.662;23.280;2023-02-19T17:07:48;14.65;;;7.75;;
76409;SDS011;65238;42.662;23.280;2023-02-19T17:10:23;16.23;;;6.18;;
76409;SDS011;65238;42.662;23.280;2023-02-19T17:12:50;11.70;;;6.20;;
76409;SDS011;65238;42.662;23.280;2023-02-19T17:15:17;12.93;;;7.00;;
76409;SDS011;65238;42.662;23.280;2023-02-19T17:17:43;15.65;;;6.75;;
76409;SDS011;65238;42.662;23.280;2023-02-19T17:20:25;17.05;;;8.23;;
76409;SDS011;65238;42.662;23.280;2023-02-19T17:22:52;18.85;;;9.45;;